createdAt,value
2018-03-27T00:00:04.788Z,10.7
2018-03-27T00:15:05.183Z,10.7
2018-03-27T00:30:04.777Z,10.7
2018-03-27T00:45:04.252Z,10.7
2018-03-27T01:00:04.807Z,10.6
2018-03-27T01:15:05.160Z,10.4
2018-03-27T01:30:04.710Z,10.2
2018-03-27T01:45:04.572Z,10
2018-03-27T02:00:04.524Z,10
2018-03-27T02:15:05.015Z,10
2018-03-27T02:30:04.630Z,10
2018-03-27T02:45:05.047Z,10.1
2018-03-27T03:00:04.406Z,10
2018-03-27T03:15:04.794Z,9.9
2018-03-27T03:30:04.479Z,9.8
2018-03-27T03:45:04.451Z,9.8
2018-03-27T04:00:04.388Z,9.7
2018-03-27T04:15:04.758Z,9.7
2018-03-27T04:30:05.052Z,9.8
2018-03-27T04:45:05.015Z,9.7
2018-03-27T05:00:04.940Z,9.7
2018-03-27T05:15:04.401Z,9.7
2018-03-27T05:30:05.562Z,10
2018-03-27T05:45:05.141Z,10.1
2018-03-27T06:00:04.628Z,10
2018-03-27T06:15:05.106Z,10
2018-03-27T06:30:04.253Z,10.2
2018-03-27T06:45:04.665Z,10.3
2018-03-27T07:00:04.680Z,10.4
2018-03-27T07:15:04.614Z,10.7
2018-03-27T07:30:04.496Z,10.9
2018-03-27T07:45:04.896Z,11.5
2018-03-27T08:00:04.315Z,11.7
2018-03-27T08:15:04.223Z,13
2018-03-27T08:30:04.549Z,21.2
2018-03-27T08:45:04.945Z,23.7
2018-03-27T09:00:04.927Z,19.1
2018-03-27T09:15:04.825Z,18
2018-03-27T09:30:04.530Z,15.5
2018-03-27T09:45:04.425Z,13.7
2018-03-27T10:00:04.874Z,13.9
2018-03-27T10:15:04.835Z,14.1
2018-03-27T10:30:04.500Z,14
2018-03-27T10:45:04.887Z,14.1
2018-03-27T11:00:04.803Z,14.2
2018-03-27T11:15:04.775Z,14.2
2018-03-27T11:30:04.432Z,14.2
2018-03-27T11:45:04.446Z,14.6
2018-03-27T12:00:04.353Z,14.4
2018-03-27T12:15:04.795Z,14.3
2018-03-27T12:30:04.918Z,14.2
2018-03-27T12:45:04.398Z,13.7
2018-03-27T13:00:04.318Z,13.2
2018-03-27T13:15:04.805Z,14.2
2018-03-27T13:30:05.470Z,14.1
2018-03-27T13:45:04.925Z,14.2
2018-03-27T14:00:04.560Z,14.6
2018-03-27T14:15:04.993Z,14.6
2018-03-27T14:30:04.274Z,14.9
2018-03-27T14:45:05.020Z,15
2018-03-27T15:00:05.073Z,14.9
2018-03-27T15:15:05.392Z,14.7
2018-03-27T15:30:05.291Z,14.6
2018-03-27T15:45:04.241Z,14.6
2018-03-27T16:00:04.769Z,14.3
2018-03-27T16:15:04.686Z,14.3
2018-03-27T16:30:04.865Z,13.9
2018-03-27T16:45:04.853Z,13.6
2018-03-27T17:00:04.292Z,13.3
2018-03-27T17:15:04.337Z,13
2018-03-27T17:30:04.617Z,12.8
2018-03-27T17:45:04.608Z,12.8
2018-03-27T18:00:04.619Z,12.4
2018-03-27T18:15:05.329Z,11.9
2018-03-27T18:30:04.550Z,11.5
2018-03-27T18:45:04.638Z,11.2
2018-03-27T19:00:05.072Z,11.2
2018-03-27T19:15:05.158Z,10.7
2018-03-27T19:30:04.836Z,10.9
2018-03-27T19:45:04.432Z,10.6
2018-03-27T20:00:04.723Z,10.4
2018-03-27T20:15:05.140Z,10.4
2018-03-27T20:30:04.933Z,10.4
2018-03-27T20:45:05.066Z,10.3
2018-03-27T21:00:04.529Z,10.3
2018-03-27T21:15:05.073Z,10.4
2018-03-27T21:30:05.177Z,10.4
2018-03-27T21:45:05.297Z,10.4
2018-03-27T22:00:05.315Z,10.5
2018-03-27T22:15:04.476Z,10.3
2018-03-27T22:30:05.230Z,10.3
2018-03-27T22:45:04.623Z,10.5
2018-03-27T23:00:05.011Z,10.7
2018-03-27T23:15:05.150Z,10.7
2018-03-27T23:30:05.002Z,10.9
2018-03-27T23:45:05.066Z,10.8
